sensor_id;sensor_type;location;lat;lon;timestamp;temperature;humidity
6496;DHT22;3281;47.658;9.166;2022-09-29T00:01:43;10.20;21.10
6496;DHT22;3281;47.658;9.166;2022-09-29T00:04:10;10.20;24.60
6496;DHT22;3281;47.658;9.166;2022-09-29T00:06:37;10.20;25.00
6496;DHT22;3281;47.658;9.166;2022-09-29T00:09:05;10.20;22.60
6496;DHT22;3281;47.658;9.166;2022-09-29T00:11:32;10.10;20.30
6496;DHT22;3281;47.658;9.166;2022-09-29T00:13:59;10.30;22.60
6496;DHT22;3281;47.658;9.166;2022-09-29T00:16:25;10.20;19.90
6496;DHT22;3281;47.658;9.166;2022-09-29T00:18:54;10.20;22.50
6496;DHT22;3281;47.658;9.166;2022-09-29T00:21:21;10.10;20.40
6496;DHT22;3281;47.658;9.166;2022-09-29T00:23:49;10.20;22.70
6496;DHT22;3281;47.658;9.166;2022-09-29T00:26:19;10.10;18.70
6496;DHT22;3281;47.658;9.166;2022-09-29T00:28:48;10.20;22.50
6496;DHT22;3281;47.658;9.166;2022-09-29T00:31:17;10.00;17.90
6496;DHT22;3281;47.658;9.166;2022-09-29T00:33:43;10.00;20.40
6496;DHT22;3281;47.658;9.166;2022-09-29T00:36:12;10.20;26.80
6496;DHT22;3281;47.658;9.166;2022-09-29T00:38:41;10.20;25.80
6496;DHT22;3281;47.658;9.166;2022-09-29T00:41:13;10.30;27.10
6496;DHT22;3281;47.658;9.166;2022-09-29T00:43:58;10.40;26.50
6496;DHT22;3281;47.658;9.166;2022-09-29T00:46:33;10.20;19.90
6496;DHT22;3281;47.658;9.166;2022-09-29T00:49:04;10.10;16.50
6496;DHT22;3281;47.658;9.166;2022-09-29T00:51:33;10.20;23.00
6496;DHT22;3281;47.658;9.166;2022-09-29T00:54:00;10.20;23.20
6496;DHT22;3281;47.658;9.166;2022-09-29T00:56:29;10.30;23.80
6496;DHT22;3281;47.658;9.166;2022-09-29T00:59:00;10.30;25.60
6496;DHT22;3281;47.658;9.166;2022-09-29T01:01:30;10.20;22.10
6496;DHT22;3281;47.658;9.166;2022-09-29T01:04:00;10.30;25.00
6496;DHT22;3281;47.658;9.166;2022-09-29T01:06:30;10.30;22.70
6496;DHT22;3281;47.658;9.166;2022-09-29T01:09:00;10.30;24.20
6496;DHT22;3281;47.658;9.166;2022-09-29T01:11:28;10.30;24.80
6496;DHT22;3281;47.658;9.166;2022-09-29T01:13:59;10.30;23.80
6496;DHT22;3281;47.658;9.166;2022-09-29T01:16:28;10.30;22.60
6496;DHT22;3281;47.658;9.166;2022-09-29T01:18:55;10.20;19.60
6496;DHT22;3281;47.658;9.166;2022-09-29T01:21:27;10.20;20.80
6496;DHT22;3281;47.658;9.166;2022-09-29T01:27:11;10.20;22.50
6496;DHT22;3281;47.658;9.166;2022-09-29T01:30:03;10.30;26.00
6496;DHT22;3281;47.658;9.166;2022-09-29T01:32:42;10.30;21.60
6496;DHT22;3281;47.658;9.166;2022-09-29T01:35:15;10.20;16.30
6496;DHT22;3281;47.658;9.166;2022-09-29T01:37:53;10.20;20.10
6496;DHT22;3281;47.658;9.166;2022-09-29T01:40:26;10.20;22.00
6496;DHT22;3281;47.658;9.166;2022-09-29T01:42:58;10.20;23.50
6496;DHT22;3281;47.658;9.166;2022-09-29T01:45:30;10.20;24.50
6496;DHT22;3281;47.658;9.166;2022-09-29T01:48:02;10.20;24.70
6496;DHT22;3281;47.658;9.166;2022-09-29T01:50:34;10.20;23.90
6496;DHT22;3281;47.658;9.166;2022-09-29T01:53:07;10.30;22.50
6496;DHT22;3281;47.658;9.166;2022-09-29T01:55:43;10.30;24.50
6496;DHT22;3281;47.658;9.166;2022-09-29T01:58:15;10.30;24.60
6496;DHT22;3281;47.658;9.166;2022-09-29T02:00:47;10.30;23.60
6496;DHT22;3281;47.658;9.166;2022-09-29T02:03:19;10.40;27.00
6496;DHT22;3281;47.658;9.166;2022-09-29T02:05:50;10.40;27.00
6496;DHT22;3281;47.658;9.166;2022-09-29T02:08:24;10.30;26.70
6496;DHT22;3281;47.658;9.166;2022-09-29T02:10:57;10.20;22.50
6496;DHT22;3281;47.658;9.166;2022-09-29T02:13:25;10.10;22.30
6496;DHT22;3281;47.658;9.166;2022-09-29T02:15:55;10.00;20.70
6496;DHT22;3281;47.658;9.166;2022-09-29T02:18:28;10.10;26.80
6496;DHT22;3281;47.658;9.166;2022-09-29T02:20:57;10.20;26.90
6496;DHT22;3281;47.658;9.166;2022-09-29T02:23:24;10.10;20.90
6496;DHT22;3281;47.658;9.166;2022-09-29T02:25:51;10.10;24.10
6496;DHT22;3281;47.658;9.166;2022-09-29T02:28:20;10.10;24.90
6496;DHT22;3281;47.658;9.166;2022-09-29T02:30:48;10.20;23.30
6496;DHT22;3281;47.658;9.166;2022-09-29T02:33:17;10.20;25.20
6496;DHT22;3281;47.658;9.166;2022-09-29T02:35:54;10.20;23.40
6496;DHT22;3281;47.658;9.166;2022-09-29T02:38:28;10.10;21.60
6496;DHT22;3281;47.658;9.166;2022-09-29T02:41:02;10.00;22.30
6496;DHT22;3281;47.658;9.166;2022-09-29T02:43:42;10.10;24.60
6496;DHT22;3281;47.658;9.166;2022-09-29T02:46:21;10.10;27.00
6496;DHT22;3281;47.658;9.166;2022-09-29T02:49:02;10.20;28.00
6496;DHT22;3281;47.658;9.166;2022-09-29T02:51:36;10.30;27.00
6496;DHT22;3281;47.658;9.166;2022-09-29T02:54:18;10.20;24.80
6496;DHT22;3281;47.658;9.166;2022-09-29T02:56:53;10.30;26.90
6496;DHT22;3281;47.658;9.166;2022-09-29T02:59:29;10.30;26.50
6496;DHT22;3281;47.658;9.166;2022-09-29T03:01:56;10.30;24.90
6496;DHT22;3281;47.658;9.166;2022-09-29T03:04:24;10.10;22.60
6496;DHT22;3281;47.658;9.166;2022-09-29T03:06:53;10.00;22.10
6496;DHT22;3281;47.658;9.166;2022-09-29T03:09:20;10.20;26.80
6496;DHT22;3281;47.658;9.166;2022-09-29T03:11:47;10.20;25.20
6496;DHT22;3281;47.658;9.166;2022-09-29T03:14:13;10.10;21.30
6496;DHT22;3281;47.658;9.166;2022-09-29T03:16:40;10.20;24.00
6496;DHT22;3281;47.658;9.166;2022-09-29T03:19:08;10.20;26.80
6496;DHT22;3281;47.658;9.166;2022-09-29T03:21:34;10.20;24.70
6496;DHT22;3281;47.658;9.166;2022-09-29T03:24:03;10.20;25.30
6496;DHT22;3281;47.658;9.166;2022-09-29T03:26:30;10.10;23.50
6496;DHT22;3281;47.658;9.166;2022-09-29T03:28:57;10.10;23.30
6496;DHT22;3281;47.658;9.166;2022-09-29T03:31:24;10.10;26.80
6496;DHT22;3281;47.658;9.166;2022-09-29T03:33:51;10.10;24.60
6496;DHT22;3281;47.658;9.166;2022-09-29T03:36:18;10.00;23.50
6496;DHT22;3281;47.658;9.166;2022-09-29T03:38:44;9.90;24.50
6496;DHT22;3281;47.658;9.166;2022-09-29T03:41:13;10.00;25.10
6496;DHT22;3281;47.658;9.166;2022-09-29T03:43:40;10.00;28.00
6496;DHT22;3281;47.658;9.166;2022-09-29T03:46:06;10.00;24.80
6496;DHT22;3281;47.658;9.166;2022-09-29T03:48:33;10.00;25.30
6496;DHT22;3281;47.658;9.166;2022-09-29T03:51:00;10.00;26.70
6496;DHT22;3281;47.658;9.166;2022-09-29T03:53:28;10.10;28.40
6496;DHT22;3281;47.658;9.166;2022-09-29T03:55:55;10.10;28.10
6496;DHT22;3281;47.658;9.166;2022-09-29T03:58:23;10.10;29.40
6496;DHT22;3281;47.658;9.166;2022-09-29T04:00:50;10.10;28.20
6496;DHT22;3281;47.658;9.166;2022-09-29T04:03:17;10.20;30.40
6496;DHT22;3281;47.658;9.166;2022-09-29T04:05:44;10.20;26.90
6496;DHT22;3281;47.658;9.166;2022-09-29T04:08:11;10.30;27.10
6496;DHT22;3281;47.658;9.166;2022-09-29T04:10:39;10.20;26.80
6496;DHT22;3281;47.658;9.166;2022-09-29T04:13:06;10.10;24.20
6496;DHT22;3281;47.658;9.166;2022-09-29T04:15:35;10.10;27.10
6496;DHT22;3281;47.658;9.166;2022-09-29T04:18:01;10.20;26.80
6496;DHT22;3281;47.658;9.166;2022-09-29T04:20:28;10.20;29.30
6496;DHT22;3281;47.658;9.166;2022-09-29T04:22:55;10.20;27.90
6496;DHT22;3281;47.658;9.166;2022-09-29T04:25:21;10.10;26.60
6496;DHT22;3281;47.658;9.166;2022-09-29T04:27:48;10.20;26.80
6496;DHT22;3281;47.658;9.166;2022-09-29T04:30:15;10.10;26.80
6496;DHT22;3281;47.658;9.166;2022-09-29T04:32:44;10.00;26.70
6496;DHT22;3281;47.658;9.166;2022-09-29T04:35:11;10.10;28.40
6496;DHT22;3281;47.658;9.166;2022-09-29T04:37:38;10.20;31.10
6496;DHT22;3281;47.658;9.166;2022-09-29T04:40:05;10.20;32.70
6496;DHT22;3281;47.658;9.166;2022-09-29T04:42:32;10.20;31.40
6496;DHT22;3281;47.658;9.166;2022-09-29T04:44:59;10.30;29.50
6496;DHT22;3281;47.658;9.166;2022-09-29T04:47:25;10.20;28.60
6496;DHT22;3281;47.658;9.166;2022-09-29T04:49:53;10.20;28.80
6496;DHT22;3281;47.658;9.166;2022-09-29T04:52:20;10.20;28.70
6496;DHT22;3281;47.658;9.166;2022-09-29T04:54:47;10.20;31.40
6496;DHT22;3281;47.658;9.166;2022-09-29T04:57:14;10.20;30.20
6496;DHT22;3281;47.658;9.166;2022-09-29T04:59:40;10.20;31.50
6496;DHT22;3281;47.658;9.166;2022-09-29T05:02:07;10.20;27.10
6496;DHT22;3281;47.658;9.166;2022-09-29T05:04:34;10.20;28.60
6496;DHT22;3281;47.658;9.166;2022-09-29T05:07:02;10.20;30.80
6496;DHT22;3281;47.658;9.166;2022-09-29T05:09:28;10.20;31.40
6496;DHT22;3281;47.658;9.166;2022-09-29T05:11:55;10.20;28.90
6496;DHT22;3281;47.658;9.166;2022-09-29T05:14:22;10.20;28.80
6496;DHT22;3281;47.658;9.166;2022-09-29T05:16:48;10.20;28.70
6496;DHT22;3281;47.658;9.166;2022-09-29T05:19:15;10.20;28.80
6496;DHT22;3281;47.658;9.166;2022-09-29T05:21:42;10.10;28.70
6496;DHT22;3281;47.658;9.166;2022-09-29T05:24:10;10.20;31.60
6496;DHT22;3281;47.658;9.166;2022-09-29T05:26:37;10.20;31.30
6496;DHT22;3281;47.658;9.166;2022-09-29T05:29:03;10.10;29.90
6496;DHT22;3281;47.658;9.166;2022-09-29T05:31:30;10.10;31.20
6496;DHT22;3281;47.658;9.166;2022-09-29T05:33:57;10.30;36.90
6496;DHT22;3281;47.658;9.166;2022-09-29T05:36:24;10.40;37.20
6496;DHT22;3281;47.658;9.166;2022-09-29T05:38:51;10.30;37.30
6496;DHT22;3281;47.658;9.166;2022-09-29T05:41:19;10.30;36.60
6496;DHT22;3281;47.658;9.166;2022-09-29T05:43:48;10.40;34.30
6496;DHT22;3281;47.658;9.166;2022-09-29T05:46:15;10.40;41.20
6496;DHT22;3281;47.658;9.166;2022-09-29T05:48:43;10.40;39.50
6496;DHT22;3281;47.658;9.166;2022-09-29T05:51:11;10.40;36.20
6496;DHT22;3281;47.658;9.166;2022-09-29T05:53:39;10.40;36.40
6496;DHT22;3281;47.658;9.166;2022-09-29T05:56:06;10.40;39.70
6496;DHT22;3281;47.658;9.166;2022-09-29T05:58:35;10.40;35.40
6496;DHT22;3281;47.658;9.166;2022-09-29T06:01:04;10.40;39.00
6496;DHT22;3281;47.658;9.166;2022-09-29T06:03:32;10.40;38.50
6496;DHT22;3281;47.658;9.166;2022-09-29T06:06:07;10.40;38.40
6496;DHT22;3281;47.658;9.166;2022-09-29T06:08:34;10.40;34.00
6496;DHT22;3281;47.658;9.166;2022-09-29T06:11:05;10.40;38.80
6496;DHT22;3281;47.658;9.166;2022-09-29T06:13:32;10.40;38.50
6496;DHT22;3281;47.658;9.166;2022-09-29T06:16:01;10.50;38.20
6496;DHT22;3281;47.658;9.166;2022-09-29T06:18:28;10.50;38.00
6496;DHT22;3281;47.658;9.166;2022-09-29T06:20:59;10.50;38.40
6496;DHT22;3281;47.658;9.166;2022-09-29T06:23:26;10.50;40.80
6496;DHT22;3281;47.658;9.166;2022-09-29T06:25:55;10.60;42.50
6496;DHT22;3281;47.658;9.166;2022-09-29T06:28:22;10.50;38.90
6496;DHT22;3281;47.658;9.166;2022-09-29T06:30:49;10.50;40.70
6496;DHT22;3281;47.658;9.166;2022-09-29T06:33:17;10.50;40.50
6496;DHT22;3281;47.658;9.166;2022-09-29T06:35:46;10.50;39.70
6496;DHT22;3281;47.658;9.166;2022-09-29T06:38:30;10.60;40.80
6496;DHT22;3281;47.658;9.166;2022-09-29T06:40:56;10.60;39.90
6496;DHT22;3281;47.658;9.166;2022-09-29T06:43:23;10.60;37.70
6496;DHT22;3281;47.658;9.166;2022-09-29T06:45:50;10.60;40.50
6496;DHT22;3281;47.658;9.166;2022-09-29T06:48:18;10.50;37.10
6496;DHT22;3281;47.658;9.166;2022-09-29T06:50:45;10.60;38.90
6496;DHT22;3281;47.658;9.166;2022-09-29T06:53:12;10.60;40.50
6496;DHT22;3281;47.658;9.166;2022-09-29T06:55:39;10.70;39.10
6496;DHT22;3281;47.658;9.166;2022-09-29T06:58:06;10.70;37.30
6496;DHT22;3281;47.658;9.166;2022-09-29T07:00:34;10.80;42.20
6496;DHT22;3281;47.658;9.166;2022-09-29T07:03:01;10.80;41.60
6496;DHT22;3281;47.658;9.166;2022-09-29T07:05:29;10.70;35.70
6496;DHT22;3281;47.658;9.166;2022-09-29T07:07:57;10.80;41.10
6496;DHT22;3281;47.658;9.166;2022-09-29T07:10:23;10.80;37.40
6496;DHT22;3281;47.658;9.166;2022-09-29T07:12:50;10.80;38.70
6496;DHT22;3281;47.658;9.166;2022-09-29T07:15:17;10.80;36.60
6496;DHT22;3281;47.658;9.166;2022-09-29T07:17:44;10.70;36.00
6496;DHT22;3281;47.658;9.166;2022-09-29T07:20:11;10.80;37.30
6496;DHT22;3281;47.658;9.166;2022-09-29T07:22:39;10.80;33.00
6496;DHT22;3281;47.658;9.166;2022-09-29T07:25:06;10.70;29.50
6496;DHT22;3281;47.658;9.166;2022-09-29T07:27:33;10.70;30.60
6496;DHT22;3281;47.658;9.166;2022-09-29T07:30:00;10.70;34.20
6496;DHT22;3281;47.658;9.166;2022-09-29T07:32:27;10.90;29.70
6496;DHT22;3281;47.658;9.166;2022-09-29T07:34:56;10.80;37.40
6496;DHT22;3281;47.658;9.166;2022-09-29T07:37:24;10.80;32.10
6496;DHT22;3281;47.658;9.166;2022-09-29T07:39:52;10.80;31.90
6496;DHT22;3281;47.658;9.166;2022-09-29T07:42:19;10.90;31.70
6496;DHT22;3281;47.658;9.166;2022-09-29T07:44:46;11.00;38.10
6496;DHT22;3281;47.658;9.166;2022-09-29T07:47:13;11.10;35.20
6496;DHT22;3281;47.658;9.166;2022-09-29T07:49:40;11.10;32.20
6496;DHT22;3281;47.658;9.166;2022-09-29T07:52:07;11.10;31.10
6496;DHT22;3281;47.658;9.166;2022-09-29T07:54:34;11.10;27.50
6496;DHT22;3281;47.658;9.166;2022-09-29T07:57:02;11.10;28.30
6496;DHT22;3281;47.658;9.166;2022-09-29T07:59:29;11.10;32.60
6496;DHT22;3281;47.658;9.166;2022-09-29T08:01:56;11.10;31.80
6496;DHT22;3281;47.658;9.166;2022-09-29T08:04:23;11.10;32.00
6496;DHT22;3281;47.658;9.166;2022-09-29T08:06:50;11.20;33.20
6496;DHT22;3281;47.658;9.166;2022-09-29T08:09:17;11.20;36.20
6496;DHT22;3281;47.658;9.166;2022-09-29T08:11:43;11.20;27.50
6496;DHT22;3281;47.658;9.166;2022-09-29T08:14:11;11.10;29.50
6496;DHT22;3281;47.658;9.166;2022-09-29T08:16:38;11.10;32.80
6496;DHT22;3281;47.658;9.166;2022-09-29T08:19:06;11.10;32.10
6496;DHT22;3281;47.658;9.166;2022-09-29T08:21:33;11.20;32.50
6496;DHT22;3281;47.658;9.166;2022-09-29T08:24:02;11.20;31.80
6496;DHT22;3281;47.658;9.166;2022-09-29T08:26:31;11.20;30.20
6496;DHT22;3281;47.658;9.166;2022-09-29T08:29:00;11.30;31.90
6496;DHT22;3281;47.658;9.166;2022-09-29T08:31:28;11.40;32.50
6496;DHT22;3281;47.658;9.166;2022-09-29T08:33:57;11.40;29.60
6496;DHT22;3281;47.658;9.166;2022-09-29T08:36:25;11.50;32.50
6496;DHT22;3281;47.658;9.166;2022-09-29T08:38:53;11.40;23.50
6496;DHT22;3281;47.658;9.166;2022-09-29T08:41:30;11.50;28.00
6496;DHT22;3281;47.658;9.166;2022-09-29T08:44:02;11.50;26.30
6496;DHT22;3281;47.658;9.166;2022-09-29T08:46:34;11.40;26.30
6496;DHT22;3281;47.658;9.166;2022-09-29T08:49:08;11.30;18.90
6496;DHT22;3281;47.658;9.166;2022-09-29T08:51:39;11.40;26.20
6496;DHT22;3281;47.658;9.166;2022-09-29T08:54:16;11.30;18.70
6496;DHT22;3281;47.658;9.166;2022-09-29T08:56:46;11.20;18.30
6496;DHT22;3281;47.658;9.166;2022-09-29T08:59:13;11.30;21.40
6496;DHT22;3281;47.658;9.166;2022-09-29T09:01:49;11.40;22.60
6496;DHT22;3281;47.658;9.166;2022-09-29T09:04:41;11.40;25.10
6496;DHT22;3281;47.658;9.166;2022-09-29T09:07:17;11.50;23.10
6496;DHT22;3281;47.658;9.166;2022-09-29T09:09:59;11.40;19.70
6496;DHT22;3281;47.658;9.166;2022-09-29T09:12:53;11.40;20.90
6496;DHT22;3281;47.658;9.166;2022-09-29T09:15:43;11.50;21.90
6496;DHT22;3281;47.658;9.166;2022-09-29T09:18:27;11.50;23.30
6496;DHT22;3281;47.658;9.166;2022-09-29T09:21:00;11.60;25.80
6496;DHT22;3281;47.658;9.166;2022-09-29T09:23:36;11.60;18.60
6496;DHT22;3281;47.658;9.166;2022-09-29T09:26:04;11.70;23.00
6496;DHT22;3281;47.658;9.166;2022-09-29T09:28:33;11.60;15.10
6496;DHT22;3281;47.658;9.166;2022-09-29T09:31:05;11.70;18.70
6496;DHT22;3281;47.658;9.166;2022-09-29T09:33:38;11.80;19.00
6496;DHT22;3281;47.658;9.166;2022-09-29T09:36:10;11.70;10.20
6496;DHT22;3281;47.658;9.166;2022-09-29T09:38:44;11.80;12.10
6496;DHT22;3281;47.658;9.166;2022-09-29T09:41:14;11.80;16.30
6496;DHT22;3281;47.658;9.166;2022-09-29T09:43:45;11.70;8.80
6496;DHT22;3281;47.658;9.166;2022-09-29T09:46:17;11.90;17.90
6496;DHT22;3281;47.658;9.166;2022-09-29T09:48:55;11.80;10.90
6496;DHT22;3281;47.658;9.166;2022-09-29T09:51:36;11.80;6.80
6496;DHT22;3281;47.658;9.166;2022-09-29T09:54:08;11.80;13.40
6496;DHT22;3281;47.658;9.166;2022-09-29T09:56:58;11.90;10.40
6496;DHT22;3281;47.658;9.166;2022-09-29T09:59:39;11.80;8.70
6496;DHT22;3281;47.658;9.166;2022-09-29T10:02:15;11.90;10.60
6496;DHT22;3281;47.658;9.166;2022-09-29T10:04:46;11.70;6.20
6496;DHT22;3281;47.658;9.166;2022-09-29T10:07:14;11.80;9.90
6496;DHT22;3281;47.658;9.166;2022-09-29T10:09:41;11.80;6.80
6496;DHT22;3281;47.658;9.166;2022-09-29T10:12:10;11.80;9.90
6496;DHT22;3281;47.658;9.166;2022-09-29T10:14:45;11.70;12.30
6496;DHT22;3281;47.658;9.166;2022-09-29T10:17:13;11.70;6.00
6496;DHT22;3281;47.658;9.166;2022-09-29T10:19:54;11.80;9.90
6496;DHT22;3281;47.658;9.166;2022-09-29T10:22:22;11.90;14.50
6496;DHT22;3281;47.658;9.166;2022-09-29T10:24:52;12.10;19.20
6496;DHT22;3281;47.658;9.166;2022-09-29T10:27:22;12.20;12.80
6496;DHT22;3281;47.658;9.166;2022-09-29T10:29:51;12.20;6.80
6496;DHT22;3281;47.658;9.166;2022-09-29T10:32:22;12.20;3.60
6496;DHT22;3281;47.658;9.166;2022-09-29T10:35:00;12.20;1.00
6496;DHT22;3281;47.658;9.166;2022-09-29T10:37:31;12.10;1.90
6496;DHT22;3281;47.658;9.166;2022-09-29T10:40:02;12.10;3.60
6496;DHT22;3281;47.658;9.166;2022-09-29T10:42:31;12.10;9.30
6496;DHT22;3281;47.658;9.166;2022-09-29T10:45:09;12.10;1.00
6496;DHT22;3281;47.658;9.166;2022-09-29T10:47:36;12.20;1.20
6496;DHT22;3281;47.658;9.166;2022-09-29T10:50:12;12.20;1.00
6496;DHT22;3281;47.658;9.166;2022-09-29T10:52:42;12.20;3.10
6496;DHT22;3281;47.658;9.166;2022-09-29T10:55:16;12.30;6.10
6496;DHT22;3281;47.658;9.166;2022-09-29T10:57:44;12.30;10.20
6496;DHT22;3281;47.658;9.166;2022-09-29T11:00:24;12.30;1.00
6496;DHT22;3281;47.658;9.166;2022-09-29T11:02:52;12.30;1.00
6496;DHT22;3281;47.658;9.166;2022-09-29T11:05:22;12.30;1.00
6496;DHT22;3281;47.658;9.166;2022-09-29T11:07:50;12.40;1.00
6496;DHT22;3281;47.658;9.166;2022-09-29T11:10:28;12.40;1.00
6496;DHT22;3281;47.658;9.166;2022-09-29T11:12:55;12.60;1.00
6496;DHT22;3281;47.658;9.166;2022-09-29T11:15:25;12.50;1.00
6496;DHT22;3281;47.658;9.166;2022-09-29T11:17:53;12.50;1.00
6496;DHT22;3281;47.658;9.166;2022-09-29T11:20:25;12.50;1.00
6496;DHT22;3281;47.658;9.166;2022-09-29T11:23:02;12.60;1.00
6496;DHT22;3281;47.658;9.166;2022-09-29T11:26:04;12.70;1.00
6496;DHT22;3281;47.658;9.166;2022-09-29T11:31:48;12.80;1.00
6496;DHT22;3281;47.658;9.166;2022-09-29T11:34:30;12.80;2.60
6496;DHT22;3281;47.658;9.166;2022-09-29T11:37:04;12.90;10.60
6496;DHT22;3281;47.658;9.166;2022-09-29T11:39:44;12.90;7.60
6496;DHT22;3281;47.658;9.166;2022-09-29T11:42:25;12.90;4.30
6496;DHT22;3281;47.658;9.166;2022-09-29T11:44:57;12.80;6.90
6496;DHT22;3281;47.658;9.166;2022-09-29T11:47:39;12.70;4.50
6496;DHT22;3281;47.658;9.166;2022-09-29T11:50:24;12.70;4.00
6496;DHT22;3281;47.658;9.166;2022-09-29T11:53:09;12.70;5.50
6496;DHT22;3281;47.658;9.166;2022-09-29T11:55:50;12.70;5.00
6496;DHT22;3281;47.658;9.166;2022-09-29T11:58:27;12.70;8.10
6496;DHT22;3281;47.658;9.166;2022-09-29T12:01:09;12.70;1.00
6496;DHT22;3281;47.658;9.166;2022-09-29T12:03:41;12.60;1.00
6496;DHT22;3281;47.658;9.166;2022-09-29T12:06:29;12.70;1.00
6496;DHT22;3281;47.658;9.166;2022-09-29T12:09:09;12.80;1.00
6496;DHT22;3281;47.658;9.166;2022-09-29T12:11:49;12.80;1.00
6496;DHT22;3281;47.658;9.166;2022-09-29T12:14:20;12.70;1.00
6496;DHT22;3281;47.658;9.166;2022-09-29T12:16:53;12.70;2.60
6496;DHT22;3281;47.658;9.166;2022-09-29T12:19:24;12.70;1.00
6496;DHT22;3281;47.658;9.166;2022-09-29T12:21:54;12.70;1.00
6496;DHT22;3281;47.658;9.166;2022-09-29T12:24:33;12.90;1.00
6496;DHT22;3281;47.658;9.166;2022-09-29T12:27:04;12.90;1.00
6496;DHT22;3281;47.658;9.166;2022-09-29T12:29:34;12.90;1.00
6496;DHT22;3281;47.658;9.166;2022-09-29T12:32:08;13.00;1.00
6496;DHT22;3281;47.658;9.166;2022-09-29T12:34:41;12.90;1.00
6496;DHT22;3281;47.658;9.166;2022-09-29T12:37:15;13.00;1.00
6496;DHT22;3281;47.658;9.166;2022-09-29T12:39:51;12.90;1.00
6496;DHT22;3281;47.658;9.166;2022-09-29T12:42:30;13.00;1.00
6496;DHT22;3281;47.658;9.166;2022-09-29T12:45:02;13.00;1.00
6496;DHT22;3281;47.658;9.166;2022-09-29T12:47:43;13.10;1.00
6496;DHT22;3281;47.658;9.166;2022-09-29T12:50:15;13.10;1.00
6496;DHT22;3281;47.658;9.166;2022-09-29T12:52:47;13.10;1.00
6496;DHT22;3281;47.658;9.166;2022-09-29T12:55:26;13.10;1.00
6496;DHT22;3281;47.658;9.166;2022-09-29T12:57:58;13.20;1.00
6496;DHT22;3281;47.658;9.166;2022-09-29T13:00:28;13.20;1.00
6496;DHT22;3281;47.658;9.166;2022-09-29T13:03:22;13.30;1.00
6496;DHT22;3281;47.658;9.166;2022-09-29T13:06:25;13.30;1.00
6496;DHT22;3281;47.658;9.166;2022-09-29T13:09:05;13.30;1.00
6496;DHT22;3281;47.658;9.166;2022-09-29T13:11:49;13.20;1.00
6496;DHT22;3281;47.658;9.166;2022-09-29T13:14:46;13.20;1.00
6496;DHT22;3281;47.658;9.166;2022-09-29T13:17:25;13.20;1.00
6496;DHT22;3281;47.658;9.166;2022-09-29T13:20:32;13.30;1.30
6496;DHT22;3281;47.658;9.166;2022-09-29T13:23:25;13.30;1.00
6496;DHT22;3281;47.658;9.166;2022-09-29T13:26:10;13.30;1.00
6496;DHT22;3281;47.658;9.166;2022-09-29T13:28:46;13.40;1.00
6496;DHT22;3281;47.658;9.166;2022-09-29T13:31:17;13.30;1.00
6496;DHT22;3281;47.658;9.166;2022-09-29T13:33:47;13.40;1.00
6496;DHT22;3281;47.658;9.166;2022-09-29T13:36:22;13.30;1.00
6496;DHT22;3281;47.658;9.166;2022-09-29T13:38:53;13.40;1.00
6496;DHT22;3281;47.658;9.166;2022-09-29T13:41:34;13.40;1.00
6496;DHT22;3281;47.658;9.166;2022-09-29T13:44:20;13.50;1.00
6496;DHT22;3281;47.658;9.166;2022-09-29T13:46:48;13.40;1.00
6496;DHT22;3281;47.658;9.166;2022-09-29T13:49:24;13.40;1.00
6496;DHT22;3281;47.658;9.166;2022-09-29T13:51:52;13.30;1.00
6496;DHT22;3281;47.658;9.166;2022-09-29T13:54:25;13.30;1.00
6496;DHT22;3281;47.658;9.166;2022-09-29T13:57:00;13.20;1.00
6496;DHT22;3281;47.658;9.166;2022-09-29T13:59:31;13.20;1.00
6496;DHT22;3281;47.658;9.166;2022-09-29T14:01:59;13.10;1.00
6496;DHT22;3281;47.658;9.166;2022-09-29T14:04:44;13.20;1.00
6496;DHT22;3281;47.658;9.166;2022-09-29T14:07:13;13.10;1.00
6496;DHT22;3281;47.658;9.166;2022-09-29T14:10:05;13.20;1.00
6496;DHT22;3281;47.658;9.166;2022-09-29T14:12:40;13.20;1.00
6496;DHT22;3281;47.658;9.166;2022-09-29T14:15:14;13.20;1.00
6496;DHT22;3281;47.658;9.166;2022-09-29T14:17:43;13.10;1.00
6496;DHT22;3281;47.658;9.166;2022-09-29T14:20:15;13.10;1.00
6496;DHT22;3281;47.658;9.166;2022-09-29T14:23:02;13.00;1.00
6496;DHT22;3281;47.658;9.166;2022-09-29T14:25:33;13.00;1.00
6496;DHT22;3281;47.658;9.166;2022-09-29T14:28:16;12.90;1.00
6496;DHT22;3281;47.658;9.166;2022-09-29T14:30:48;13.00;1.00
6496;DHT22;3281;47.658;9.166;2022-09-29T14:33:18;13.00;1.00
6496;DHT22;3281;47.658;9.166;2022-09-29T14:35:53;13.00;1.00
6496;DHT22;3281;47.658;9.166;2022-09-29T14:38:22;13.00;1.00
6496;DHT22;3281;47.658;9.166;2022-09-29T14:40:54;12.90;1.00
6496;DHT22;3281;47.658;9.166;2022-09-29T14:43:25;12.90;1.00
6496;DHT22;3281;47.658;9.166;2022-09-29T14:46:17;12.90;1.00
6496;DHT22;3281;47.658;9.166;2022-09-29T14:49:26;12.90;1.00
6496;DHT22;3281;47.658;9.166;2022-09-29T14:52:20;12.90;1.00
6496;DHT22;3281;47.658;9.166;2022-09-29T14:54:58;12.90;1.00
6496;DHT22;3281;47.658;9.166;2022-09-29T14:57:41;12.90;1.00
6496;DHT22;3281;47.658;9.166;2022-09-29T15:00:15;12.90;1.00
6496;DHT22;3281;47.658;9.166;2022-09-29T15:02:46;12.80;1.00
6496;DHT22;3281;47.658;9.166;2022-09-29T15:05:23;12.80;1.00
6496;DHT22;3281;47.658;9.166;2022-09-29T15:07:51;12.70;1.00
6496;DHT22;3281;47.658;9.166;2022-09-29T15:10:24;12.60;1.00
6496;DHT22;3281;47.658;9.166;2022-09-29T15:12:51;12.60;1.00
6496;DHT22;3281;47.658;9.166;2022-09-29T15:15:42;12.60;1.50
6496;DHT22;3281;47.658;9.166;2022-09-29T15:18:28;12.60;1.00
6496;DHT22;3281;47.658;9.166;2022-09-29T15:21:03;12.60;2.80
6496;DHT22;3281;47.658;9.166;2022-09-29T15:26:34;12.50;10.10
6496;DHT22;3281;47.658;9.166;2022-09-29T15:29:05;12.60;10.90
6496;DHT22;3281;47.658;9.166;2022-09-29T15:31:33;12.60;10.70
6496;DHT22;3281;47.658;9.166;2022-09-29T15:34:02;12.60;7.00
6496;DHT22;3281;47.658;9.166;2022-09-29T15:36:34;12.60;10.40
6496;DHT22;3281;47.658;9.166;2022-09-29T15:39:04;12.60;10.60
6496;DHT22;3281;47.658;9.166;2022-09-29T15:41:33;12.60;3.60
6496;DHT22;3281;47.658;9.166;2022-09-29T15:44:02;12.60;8.00
6496;DHT22;3281;47.658;9.166;2022-09-29T15:46:37;12.50;3.60
6496;DHT22;3281;47.658;9.166;2022-09-29T15:49:17;12.50;3.60
6496;DHT22;3281;47.658;9.166;2022-09-29T15:51:55;12.50;2.70
6496;DHT22;3281;47.658;9.166;2022-09-29T15:54:23;12.60;7.10
6496;DHT22;3281;47.658;9.166;2022-09-29T15:56:50;12.60;10.40
6496;DHT22;3281;47.658;9.166;2022-09-29T15:59:42;12.40;1.00
6496;DHT22;3281;47.658;9.166;2022-09-29T16:02:19;12.50;7.80
6496;DHT22;3281;47.658;9.166;2022-09-29T16:04:52;12.50;8.20
6496;DHT22;3281;47.658;9.166;2022-09-29T16:07:23;12.40;10.30
6496;DHT22;3281;47.658;9.166;2022-09-29T16:09:57;12.50;11.00
6496;DHT22;3281;47.658;9.166;2022-09-29T16:12:25;12.50;9.00
6496;DHT22;3281;47.658;9.166;2022-09-29T16:14:53;12.60;12.30
6496;DHT22;3281;47.658;9.166;2022-09-29T16:17:20;12.60;4.10
6496;DHT22;3281;47.658;9.166;2022-09-29T16:19:49;12.60;2.20
6496;DHT22;3281;47.658;9.166;2022-09-29T16:22:19;12.60;1.70
6496;DHT22;3281;47.658;9.166;2022-09-29T16:24:54;12.70;2.00
6496;DHT22;3281;47.658;9.166;2022-09-29T16:27:45;12.60;1.90
6496;DHT22;3281;47.658;9.166;2022-09-29T16:30:21;12.60;5.40
6496;DHT22;3281;47.658;9.166;2022-09-29T16:33:02;12.50;4.90
6496;DHT22;3281;47.658;9.166;2022-09-29T16:35:43;12.50;7.40
6496;DHT22;3281;47.658;9.166;2022-09-29T16:38:18;12.40;13.00
6496;DHT22;3281;47.658;9.166;2022-09-29T16:40:48;12.50;6.90
6496;DHT22;3281;47.658;9.166;2022-09-29T16:43:21;12.50;7.40
6496;DHT22;3281;47.658;9.166;2022-09-29T16:45:49;12.40;4.30
6496;DHT22;3281;47.658;9.166;2022-09-29T16:48:16;12.30;5.10